sensor_id;sensor_type;location;lat;lon;timestamp;temperature;humidity
4615;DHT22;2320;51.362;6.946;2023-08-06T00:00:37;16.50;99.90
4615;DHT22;2320;51.362;6.946;2023-08-06T00:03:02;16.60;99.90
4615;DHT22;2320;51.362;6.946;2023-08-06T00:05:28;16.60;99.90
4615;DHT22;2320;51.362;6.946;2023-08-06T00:07:53;16.60;99.90
4615;DHT22;2320;51.362;6.946;2023-08-06T00:10:19;16.70;99.90
4615;DHT22;2320;51.362;6.946;2023-08-06T00:12:44;16.60;99.90
4615;DHT22;2320;51.362;6.946;2023-08-06T00:15:10;16.60;99.90
4615;DHT22;2320;51.362;6.946;2023-08-06T00:17:36;16.60;99.90
4615;DHT22;2320;51.362;6.946;2023-08-06T00:20:02;16.60;99.90
4615;DHT22;2320;51.362;6.946;2023-08-06T00:22:34;16.60;99.90
4615;DHT22;2320;51.362;6.946;2023-08-06T00:25:00;16.60;99.90
4615;DHT22;2320;51.362;6.946;2023-08-06T00:27:25;16.60;99.90
4615;DHT22;2320;51.362;6.946;2023-08-06T00:29:51;16.50;99.90
4615;DHT22;2320;51.362;6.946;2023-08-06T00:32:16;16.50;99.90
4615;DHT22;2320;51.362;6.946;2023-08-06T00:34:42;16.60;99.90
4615;DHT22;2320;51.362;6.946;2023-08-06T00:37:07;16.60;99.90
4615;DHT22;2320;51.362;6.946;2023-08-06T00:39:33;16.60;99.90
4615;DHT22;2320;51.362;6.946;2023-08-06T00:41:58;16.60;99.90
4615;DHT22;2320;51.362;6.946;2023-08-06T00:44:24;16.60;99.90
4615;DHT22;2320;51.362;6.946;2023-08-06T00:46:49;16.70;99.90
4615;DHT22;2320;51.362;6.946;2023-08-06T00:49:15;16.60;99.90
4615;DHT22;2320;51.362;6.946;2023-08-06T00:51:40;16.60;99.90
4615;DHT22;2320;51.362;6.946;2023-08-06T00:54:06;16.60;99.90
4615;DHT22;2320;51.362;6.946;2023-08-06T00:56:32;16.50;99.90
4615;DHT22;2320;51.362;6.946;2023-08-06T00:58:59;16.50;99.90
4615;DHT22;2320;51.362;6.946;2023-08-06T01:01:25;16.50;99.90
4615;DHT22;2320;51.362;6.946;2023-08-06T01:03:50;16.40;99.90
4615;DHT22;2320;51.362;6.946;2023-08-06T01:06:16;16.40;99.90
4615;DHT22;2320;51.362;6.946;2023-08-06T01:08:48;16.30;99.90
4615;DHT22;2320;51.362;6.946;2023-08-06T01:11:21;16.30;99.90
4615;DHT22;2320;51.362;6.946;2023-08-06T01:13:54;16.30;99.90
4615;DHT22;2320;51.362;6.946;2023-08-06T01:16:20;16.20;99.90
4615;DHT22;2320;51.362;6.946;2023-08-06T01:18:49;16.20;99.90
4615;DHT22;2320;51.362;6.946;2023-08-06T01:21:15;16.20;99.90
4615;DHT22;2320;51.362;6.946;2023-08-06T01:23:43;16.20;99.90
4615;DHT22;2320;51.362;6.946;2023-08-06T01:26:30;16.20;99.90
4615;DHT22;2320;51.362;6.946;2023-08-06T01:31:43;16.20;99.90
4615;DHT22;2320;51.362;6.946;2023-08-06T01:34:09;16.30;99.90
4615;DHT22;2320;51.362;6.946;2023-08-06T01:36:36;16.30;99.90
4615;DHT22;2320;51.362;6.946;2023-08-06T01:39:01;16.30;99.90
4615;DHT22;2320;51.362;6.946;2023-08-06T01:41:27;16.40;99.90
4615;DHT22;2320;51.362;6.946;2023-08-06T01:43:52;16.30;99.90
4615;DHT22;2320;51.362;6.946;2023-08-06T01:46:18;16.40;99.90
4615;DHT22;2320;51.362;6.946;2023-08-06T01:48:43;16.40;99.90
4615;DHT22;2320;51.362;6.946;2023-08-06T01:51:09;16.40;99.90
4615;DHT22;2320;51.362;6.946;2023-08-06T01:53:34;16.40;99.90
4615;DHT22;2320;51.362;6.946;2023-08-06T01:56:00;16.50;99.90
4615;DHT22;2320;51.362;6.946;2023-08-06T01:58:25;16.40;99.90
4615;DHT22;2320;51.362;6.946;2023-08-06T02:00:51;16.40;99.90
4615;DHT22;2320;51.362;6.946;2023-08-06T02:03:16;16.40;99.90
4615;DHT22;2320;51.362;6.946;2023-08-06T02:05:42;16.40;99.90
4615;DHT22;2320;51.362;6.946;2023-08-06T02:08:07;16.50;99.90
4615;DHT22;2320;51.362;6.946;2023-08-06T02:10:33;16.40;99.90
4615;DHT22;2320;51.362;6.946;2023-08-06T02:12:58;16.40;99.90
4615;DHT22;2320;51.362;6.946;2023-08-06T02:15:24;16.40;99.90
4615;DHT22;2320;51.362;6.946;2023-08-06T02:17:49;16.40;99.90
4615;DHT22;2320;51.362;6.946;2023-08-06T02:20:14;16.40;99.90
4615;DHT22;2320;51.362;6.946;2023-08-06T02:22:40;16.40;99.90
4615;DHT22;2320;51.362;6.946;2023-08-06T02:25:05;16.40;99.90
4615;DHT22;2320;51.362;6.946;2023-08-06T02:27:31;16.40;99.90
4615;DHT22;2320;51.362;6.946;2023-08-06T02:29:56;16.40;99.90
4615;DHT22;2320;51.362;6.946;2023-08-06T02:32:22;16.50;99.90
4615;DHT22;2320;51.362;6.946;2023-08-06T02:34:47;16.40;99.90
4615;DHT22;2320;51.362;6.946;2023-08-06T02:37:13;16.40;99.90
4615;DHT22;2320;51.362;6.946;2023-08-06T02:39:38;16.40;99.90
4615;DHT22;2320;51.362;6.946;2023-08-06T02:42:08;16.40;99.90
4615;DHT22;2320;51.362;6.946;2023-08-06T02:44:33;16.40;99.90
4615;DHT22;2320;51.362;6.946;2023-08-06T02:46:59;16.40;99.90
4615;DHT22;2320;51.362;6.946;2023-08-06T02:49:25;16.40;99.90
4615;DHT22;2320;51.362;6.946;2023-08-06T02:51:50;16.40;99.90
4615;DHT22;2320;51.362;6.946;2023-08-06T02:54:16;16.40;99.90
4615;DHT22;2320;51.362;6.946;2023-08-06T02:56:44;16.50;99.90
4615;DHT22;2320;51.362;6.946;2023-08-06T02:59:10;16.60;99.90
4615;DHT22;2320;51.362;6.946;2023-08-06T03:01:36;16.40;99.90
4615;DHT22;2320;51.362;6.946;2023-08-06T03:04:01;16.40;99.90
4615;DHT22;2320;51.362;6.946;2023-08-06T03:06:27;16.40;99.90
4615;DHT22;2320;51.362;6.946;2023-08-06T03:08:52;16.40;99.90
4615;DHT22;2320;51.362;6.946;2023-08-06T03:11:17;16.50;99.90
4615;DHT22;2320;51.362;6.946;2023-08-06T03:13:43;16.50;99.90
4615;DHT22;2320;51.362;6.946;2023-08-06T03:16:08;16.50;99.90
4615;DHT22;2320;51.362;6.946;2023-08-06T03:18:34;16.50;99.90
4615;DHT22;2320;51.362;6.946;2023-08-06T03:20:59;16.40;99.90
4615;DHT22;2320;51.362;6.946;2023-08-06T03:23:25;16.50;99.90
4615;DHT22;2320;51.362;6.946;2023-08-06T03:25:50;16.50;99.90
4615;DHT22;2320;51.362;6.946;2023-08-06T03:28:16;16.40;99.90
4615;DHT22;2320;51.362;6.946;2023-08-06T03:30:41;16.40;99.90
4615;DHT22;2320;51.362;6.946;2023-08-06T03:33:07;16.40;99.90
4615;DHT22;2320;51.362;6.946;2023-08-06T03:35:32;16.40;99.90
4615;DHT22;2320;51.362;6.946;2023-08-06T03:37:58;16.40;99.90
4615;DHT22;2320;51.362;6.946;2023-08-06T03:40:23;16.40;99.90
4615;DHT22;2320;51.362;6.946;2023-08-06T03:42:49;16.40;99.90
4615;DHT22;2320;51.362;6.946;2023-08-06T03:45:14;16.50;99.90
4615;DHT22;2320;51.362;6.946;2023-08-06T03:47:40;16.50;99.90
4615;DHT22;2320;51.362;6.946;2023-08-06T03:50:05;16.40;99.90
4615;DHT22;2320;51.362;6.946;2023-08-06T03:52:31;16.40;99.90
4615;DHT22;2320;51.362;6.946;2023-08-06T03:54:56;16.50;99.90
4615;DHT22;2320;51.362;6.946;2023-08-06T03:57:22;16.50;99.90
4615;DHT22;2320;51.362;6.946;2023-08-06T03:59:47;16.40;99.90
4615;DHT22;2320;51.362;6.946;2023-08-06T04:02:13;16.40;99.90
4615;DHT22;2320;51.362;6.946;2023-08-06T04:04:38;16.40;99.90
4615;DHT22;2320;51.362;6.946;2023-08-06T04:07:04;16.20;99.90
4615;DHT22;2320;51.362;6.946;2023-08-06T04:09:29;16.30;99.90
4615;DHT22;2320;51.362;6.946;2023-08-06T04:11:55;16.40;99.90
4615;DHT22;2320;51.362;6.946;2023-08-06T04:14:21;16.40;99.90
4615;DHT22;2320;51.362;6.946;2023-08-06T04:16:46;16.40;99.90
4615;DHT22;2320;51.362;6.946;2023-08-06T04:19:12;16.40;99.90
4615;DHT22;2320;51.362;6.946;2023-08-06T04:21:37;16.50;99.90
4615;DHT22;2320;51.362;6.946;2023-08-06T04:24:03;16.50;99.90
4615;DHT22;2320;51.362;6.946;2023-08-06T04:26:28;16.50;99.90
4615;DHT22;2320;51.362;6.946;2023-08-06T04:28:54;16.50;99.90
4615;DHT22;2320;51.362;6.946;2023-08-06T04:31:19;16.50;99.90
4615;DHT22;2320;51.362;6.946;2023-08-06T04:33:45;16.40;99.90
4615;DHT22;2320;51.362;6.946;2023-08-06T04:36:11;16.50;99.90
4615;DHT22;2320;51.362;6.946;2023-08-06T04:38:36;16.50;99.90
4615;DHT22;2320;51.362;6.946;2023-08-06T04:41:02;16.50;99.90
4615;DHT22;2320;51.362;6.946;2023-08-06T04:43:28;16.40;99.90
4615;DHT22;2320;51.362;6.946;2023-08-06T04:45:54;16.50;99.90
4615;DHT22;2320;51.362;6.946;2023-08-06T04:48:20;16.40;99.90
4615;DHT22;2320;51.362;6.946;2023-08-06T04:50:46;16.40;99.90
4615;DHT22;2320;51.362;6.946;2023-08-06T04:53:11;16.50;99.90
4615;DHT22;2320;51.362;6.946;2023-08-06T04:55:37;16.60;99.90
4615;DHT22;2320;51.362;6.946;2023-08-06T04:58:02;16.60;99.90
4615;DHT22;2320;51.362;6.946;2023-08-06T05:00:28;16.60;99.90
4615;DHT22;2320;51.362;6.946;2023-08-06T05:02:53;16.60;99.90
4615;DHT22;2320;51.362;6.946;2023-08-06T05:05:19;16.60;99.90
4615;DHT22;2320;51.362;6.946;2023-08-06T05:07:45;16.80;99.90
4615;DHT22;2320;51.362;6.946;2023-08-06T05:10:10;16.90;99.90
4615;DHT22;2320;51.362;6.946;2023-08-06T05:12:36;17.10;99.90
4615;DHT22;2320;51.362;6.946;2023-08-06T05:15:01;17.10;99.90
4615;DHT22;2320;51.362;6.946;2023-08-06T05:17:27;17.30;99.90
4615;DHT22;2320;51.362;6.946;2023-08-06T05:19:52;17.40;99.90
4615;DHT22;2320;51.362;6.946;2023-08-06T05:22:17;17.60;99.90
4615;DHT22;2320;51.362;6.946;2023-08-06T05:24:43;17.60;99.90
4615;DHT22;2320;51.362;6.946;2023-08-06T05:27:08;17.60;99.90
4615;DHT22;2320;51.362;6.946;2023-08-06T05:29:34;17.70;99.90
4615;DHT22;2320;51.362;6.946;2023-08-06T05:31:59;17.60;99.90
4615;DHT22;2320;51.362;6.946;2023-08-06T05:34:25;17.70;99.90
4615;DHT22;2320;51.362;6.946;2023-08-06T05:36:50;17.80;99.90
4615;DHT22;2320;51.362;6.946;2023-08-06T05:39:16;17.90;99.90
4615;DHT22;2320;51.362;6.946;2023-08-06T05:41:41;17.90;99.90
4615;DHT22;2320;51.362;6.946;2023-08-06T05:44:07;17.90;99.90
4615;DHT22;2320;51.362;6.946;2023-08-06T05:46:32;17.70;99.90
4615;DHT22;2320;51.362;6.946;2023-08-06T05:48:57;17.80;99.90
4615;DHT22;2320;51.362;6.946;2023-08-06T05:51:23;17.90;99.90
4615;DHT22;2320;51.362;6.946;2023-08-06T05:53:48;17.90;99.90
4615;DHT22;2320;51.362;6.946;2023-08-06T05:56:15;18.20;99.90
4615;DHT22;2320;51.362;6.946;2023-08-06T05:58:41;18.40;99.90
4615;DHT22;2320;51.362;6.946;2023-08-06T06:01:06;18.80;99.90
4615;DHT22;2320;51.362;6.946;2023-08-06T06:03:32;19.20;99.90
4615;DHT22;2320;51.362;6.946;2023-08-06T06:05:57;19.20;99.90
4615;DHT22;2320;51.362;6.946;2023-08-06T06:08:23;19.40;99.90
4615;DHT22;2320;51.362;6.946;2023-08-06T06:10:49;19.60;99.90
4615;DHT22;2320;51.362;6.946;2023-08-06T06:13:14;19.80;99.90
4615;DHT22;2320;51.362;6.946;2023-08-06T06:15:39;19.90;99.90
4615;DHT22;2320;51.362;6.946;2023-08-06T06:18:05;19.90;99.90
4615;DHT22;2320;51.362;6.946;2023-08-06T06:20:31;19.70;99.90
4615;DHT22;2320;51.362;6.946;2023-08-06T06:22:57;19.50;99.90
4615;DHT22;2320;51.362;6.946;2023-08-06T06:25:22;19.50;99.90
4615;DHT22;2320;51.362;6.946;2023-08-06T06:27:48;19.60;99.90
4615;DHT22;2320;51.362;6.946;2023-08-06T06:30:13;19.70;99.90
4615;DHT22;2320;51.362;6.946;2023-08-06T06:32:39;19.70;99.90
4615;DHT22;2320;51.362;6.946;2023-08-06T06:35:06;19.70;99.90
4615;DHT22;2320;51.362;6.946;2023-08-06T06:37:31;19.60;99.90
4615;DHT22;2320;51.362;6.946;2023-08-06T06:39:57;19.60;99.90
4615;DHT22;2320;51.362;6.946;2023-08-06T06:42:22;19.90;99.90
4615;DHT22;2320;51.362;6.946;2023-08-06T06:44:48;20.30;99.90
4615;DHT22;2320;51.362;6.946;2023-08-06T06:47:13;20.70;99.90
4615;DHT22;2320;51.362;6.946;2023-08-06T06:49:39;21.20;99.90
4615;DHT22;2320;51.362;6.946;2023-08-06T06:52:04;21.60;99.90
4615;DHT22;2320;51.362;6.946;2023-08-06T06:54:30;22.00;99.90
4615;DHT22;2320;51.362;6.946;2023-08-06T06:56:55;22.60;99.90
4615;DHT22;2320;51.362;6.946;2023-08-06T06:59:21;23.10;99.90
4615;DHT22;2320;51.362;6.946;2023-08-06T07:01:46;24.10;99.90
4615;DHT22;2320;51.362;6.946;2023-08-06T07:04:12;25.10;99.90
4615;DHT22;2320;51.362;6.946;2023-08-06T07:06:37;25.60;99.90
4615;DHT22;2320;51.362;6.946;2023-08-06T07:09:03;26.00;99.90
4615;DHT22;2320;51.362;6.946;2023-08-06T07:11:29;26.20;99.90
4615;DHT22;2320;51.362;6.946;2023-08-06T07:13:57;26.30;99.90
4615;DHT22;2320;51.362;6.946;2023-08-06T07:16:23;26.00;99.90
4615;DHT22;2320;51.362;6.946;2023-08-06T07:18:50;25.80;99.90
4615;DHT22;2320;51.362;6.946;2023-08-06T07:21:16;25.60;99.90
4615;DHT22;2320;51.362;6.946;2023-08-06T07:23:41;25.20;99.90
4615;DHT22;2320;51.362;6.946;2023-08-06T07:26:07;24.90;99.90
4615;DHT22;2320;51.362;6.946;2023-08-06T07:28:32;24.40;99.90
4615;DHT22;2320;51.362;6.946;2023-08-06T07:30:58;24.20;99.90
4615;DHT22;2320;51.362;6.946;2023-08-06T07:33:23;23.90;99.90
4615;DHT22;2320;51.362;6.946;2023-08-06T07:35:49;24.00;99.90
4615;DHT22;2320;51.362;6.946;2023-08-06T07:38:14;23.70;99.90
4615;DHT22;2320;51.362;6.946;2023-08-06T07:40:40;23.80;99.90
4615;DHT22;2320;51.362;6.946;2023-08-06T07:43:05;23.70;99.90
4615;DHT22;2320;51.362;6.946;2023-08-06T07:45:34;24.10;99.90
4615;DHT22;2320;51.362;6.946;2023-08-06T07:48:00;25.00;99.90
4615;DHT22;2320;51.362;6.946;2023-08-06T07:50:26;26.20;99.90
4615;DHT22;2320;51.362;6.946;2023-08-06T07:52:51;27.90;99.90
4615;DHT22;2320;51.362;6.946;2023-08-06T07:55:17;28.30;99.90
4615;DHT22;2320;51.362;6.946;2023-08-06T07:57:42;28.20;99.90
4615;DHT22;2320;51.362;6.946;2023-08-06T08:00:08;28.00;99.90
4615;DHT22;2320;51.362;6.946;2023-08-06T08:02:34;28.00;99.90
4615;DHT22;2320;51.362;6.946;2023-08-06T08:05:00;27.50;99.90
4615;DHT22;2320;51.362;6.946;2023-08-06T08:07:25;27.30;99.90
4615;DHT22;2320;51.362;6.946;2023-08-06T08:09:53;26.80;99.90
4615;DHT22;2320;51.362;6.946;2023-08-06T08:12:19;26.40;99.90
4615;DHT22;2320;51.362;6.946;2023-08-06T08:14:44;26.30;99.90
4615;DHT22;2320;51.362;6.946;2023-08-06T08:17:10;26.20;99.90
4615;DHT22;2320;51.362;6.946;2023-08-06T08:19:36;25.90;99.90
4615;DHT22;2320;51.362;6.946;2023-08-06T08:22:01;26.00;99.90
4615;DHT22;2320;51.362;6.946;2023-08-06T08:24:27;25.90;99.90
4615;DHT22;2320;51.362;6.946;2023-08-06T08:26:53;25.60;99.90
4615;DHT22;2320;51.362;6.946;2023-08-06T08:29:21;25.50;99.90
4615;DHT22;2320;51.362;6.946;2023-08-06T08:31:47;24.90;99.90
4615;DHT22;2320;51.362;6.946;2023-08-06T08:34:15;24.60;99.90
4615;DHT22;2320;51.362;6.946;2023-08-06T08:36:40;24.10;99.90
4615;DHT22;2320;51.362;6.946;2023-08-06T08:39:06;23.60;99.90
4615;DHT22;2320;51.362;6.946;2023-08-06T08:41:31;23.10;99.90
4615;DHT22;2320;51.362;6.946;2023-08-06T08:43:58;22.90;99.90
4615;DHT22;2320;51.362;6.946;2023-08-06T08:46:24;22.90;99.90
4615;DHT22;2320;51.362;6.946;2023-08-06T08:48:51;22.90;99.90
4615;DHT22;2320;51.362;6.946;2023-08-06T08:51:16;23.10;99.90
4615;DHT22;2320;51.362;6.946;2023-08-06T08:53:42;23.00;99.90
4615;DHT22;2320;51.362;6.946;2023-08-06T08:56:09;23.00;99.90
4615;DHT22;2320;51.362;6.946;2023-08-06T08:58:36;22.90;99.90
4615;DHT22;2320;51.362;6.946;2023-08-06T09:01:02;22.80;99.90
4615;DHT22;2320;51.362;6.946;2023-08-06T09:03:27;22.40;99.90
4615;DHT22;2320;51.362;6.946;2023-08-06T09:05:53;22.40;99.90
4615;DHT22;2320;51.362;6.946;2023-08-06T09:08:18;22.50;99.90
4615;DHT22;2320;51.362;6.946;2023-08-06T09:10:47;22.60;99.90
4615;DHT22;2320;51.362;6.946;2023-08-06T09:13:13;22.70;99.90
4615;DHT22;2320;51.362;6.946;2023-08-06T09:15:39;22.70;99.90
4615;DHT22;2320;51.362;6.946;2023-08-06T09:18:10;22.70;99.90
4615;DHT22;2320;51.362;6.946;2023-08-06T09:20:37;22.60;99.90
4615;DHT22;2320;51.362;6.946;2023-08-06T09:23:09;22.30;99.90
4615;DHT22;2320;51.362;6.946;2023-08-06T09:25:36;21.90;99.90
4615;DHT22;2320;51.362;6.946;2023-08-06T09:28:02;21.40;99.90
4615;DHT22;2320;51.362;6.946;2023-08-06T09:30:29;21.10;99.90
4615;DHT22;2320;51.362;6.946;2023-08-06T09:32:55;20.80;99.90
4615;DHT22;2320;51.362;6.946;2023-08-06T09:35:21;20.50;99.90
4615;DHT22;2320;51.362;6.946;2023-08-06T09:37:46;20.20;99.90
4615;DHT22;2320;51.362;6.946;2023-08-06T09:40:28;20.20;99.90
4615;DHT22;2320;51.362;6.946;2023-08-06T09:42:55;20.10;99.90
4615;DHT22;2320;51.362;6.946;2023-08-06T09:45:21;19.80;99.90
4615;DHT22;2320;51.362;6.946;2023-08-06T09:47:55;19.80;99.90
4615;DHT22;2320;51.362;6.946;2023-08-06T09:50:21;19.70;99.90
4615;DHT22;2320;51.362;6.946;2023-08-06T09:52:46;19.80;99.90
4615;DHT22;2320;51.362;6.946;2023-08-06T09:55:14;19.80;99.90
4615;DHT22;2320;51.362;6.946;2023-08-06T09:57:40;19.70;99.90
4615;DHT22;2320;51.362;6.946;2023-08-06T10:00:06;19.80;99.90
4615;DHT22;2320;51.362;6.946;2023-08-06T10:02:34;19.80;99.90
4615;DHT22;2320;51.362;6.946;2023-08-06T10:05:00;19.80;99.90
4615;DHT22;2320;51.362;6.946;2023-08-06T10:07:26;20.10;99.90
4615;DHT22;2320;51.362;6.946;2023-08-06T10:09:52;20.40;99.90
4615;DHT22;2320;51.362;6.946;2023-08-06T10:12:18;20.70;99.90
4615;DHT22;2320;51.362;6.946;2023-08-06T10:14:45;20.80;99.90
4615;DHT22;2320;51.362;6.946;2023-08-06T10:17:10;21.10;99.90
4615;DHT22;2320;51.362;6.946;2023-08-06T10:19:36;21.40;99.90
4615;DHT22;2320;51.362;6.946;2023-08-06T10:22:07;21.50;99.90
4615;DHT22;2320;51.362;6.946;2023-08-06T10:27:19;21.70;99.90
4615;DHT22;2320;51.362;6.946;2023-08-06T10:29:44;21.80;99.90
4615;DHT22;2320;51.362;6.946;2023-08-06T10:32:09;22.00;99.90
4615;DHT22;2320;51.362;6.946;2023-08-06T10:37:20;22.10;99.90
4615;DHT22;2320;51.362;6.946;2023-08-06T10:39:52;22.20;99.90
4615;DHT22;2320;51.362;6.946;2023-08-06T10:42:22;22.50;99.90
4615;DHT22;2320;51.362;6.946;2023-08-06T10:47:37;22.90;99.90
4615;DHT22;2320;51.362;6.946;2023-08-06T10:50:03;23.10;99.90
4615;DHT22;2320;51.362;6.946;2023-08-06T10:52:28;23.10;99.90
4615;DHT22;2320;51.362;6.946;2023-08-06T10:54:54;23.10;99.90
4615;DHT22;2320;51.362;6.946;2023-08-06T10:57:20;22.80;99.90
4615;DHT22;2320;51.362;6.946;2023-08-06T10:59:45;22.30;99.90
4615;DHT22;2320;51.362;6.946;2023-08-06T11:02:11;22.00;99.90
4615;DHT22;2320;51.362;6.946;2023-08-06T11:04:36;21.60;99.90
4615;DHT22;2320;51.362;6.946;2023-08-06T11:07:02;21.30;99.90
4615;DHT22;2320;51.362;6.946;2023-08-06T11:09:27;20.90;99.90
4615;DHT22;2320;51.362;6.946;2023-08-06T11:11:53;20.20;99.90
4615;DHT22;2320;51.362;6.946;2023-08-06T11:14:18;19.80;99.90
4615;DHT22;2320;51.362;6.946;2023-08-06T11:16:43;19.30;99.90
4615;DHT22;2320;51.362;6.946;2023-08-06T11:19:09;18.80;99.90
4615;DHT22;2320;51.362;6.946;2023-08-06T11:21:34;18.30;99.90
4615;DHT22;2320;51.362;6.946;2023-08-06T11:24:00;18.00;99.90
4615;DHT22;2320;51.362;6.946;2023-08-06T11:26:26;17.70;99.90
4615;DHT22;2320;51.362;6.946;2023-08-06T11:28:53;17.40;99.90
4615;DHT22;2320;51.362;6.946;2023-08-06T11:31:19;16.90;99.90
4615;DHT22;2320;51.362;6.946;2023-08-06T11:33:45;16.80;99.90
4615;DHT22;2320;51.362;6.946;2023-08-06T11:36:10;16.70;99.90
4615;DHT22;2320;51.362;6.946;2023-08-06T11:38:36;16.50;99.90
4615;DHT22;2320;51.362;6.946;2023-08-06T11:41:01;16.50;99.90
4615;DHT22;2320;51.362;6.946;2023-08-06T11:43:29;16.50;99.90
4615;DHT22;2320;51.362;6.946;2023-08-06T11:45:56;16.50;99.90
4615;DHT22;2320;51.362;6.946;2023-08-06T11:48:21;16.50;99.90
4615;DHT22;2320;51.362;6.946;2023-08-06T11:50:47;16.40;99.90
4615;DHT22;2320;51.362;6.946;2023-08-06T11:53:13;16.20;99.90
4615;DHT22;2320;51.362;6.946;2023-08-06T11:55:39;16.10;99.90
4615;DHT22;2320;51.362;6.946;2023-08-06T11:58:04;16.00;99.90
4615;DHT22;2320;51.362;6.946;2023-08-06T12:00:30;15.80;99.90
4615;DHT22;2320;51.362;6.946;2023-08-06T12:02:56;15.80;99.90
4615;DHT22;2320;51.362;6.946;2023-08-06T12:05:22;15.80;99.90
4615;DHT22;2320;51.362;6.946;2023-08-06T12:07:54;15.80;99.90
4615;DHT22;2320;51.362;6.946;2023-08-06T12:10:21;15.80;99.90
4615;DHT22;2320;51.362;6.946;2023-08-06T12:12:47;15.80;99.90
4615;DHT22;2320;51.362;6.946;2023-08-06T12:15:13;15.70;99.90
4615;DHT22;2320;51.362;6.946;2023-08-06T12:17:38;15.80;99.90
4615;DHT22;2320;51.362;6.946;2023-08-06T12:20:05;15.90;99.90
4615;DHT22;2320;51.362;6.946;2023-08-06T12:22:31;15.90;99.90
4615;DHT22;2320;51.362;6.946;2023-08-06T12:25:00;15.90;99.90
4615;DHT22;2320;51.362;6.946;2023-08-06T12:27:26;15.90;99.90
4615;DHT22;2320;51.362;6.946;2023-08-06T12:29:51;15.90;99.90
4615;DHT22;2320;51.362;6.946;2023-08-06T12:32:17;15.90;99.90
4615;DHT22;2320;51.362;6.946;2023-08-06T12:34:42;15.90;99.90
4615;DHT22;2320;51.362;6.946;2023-08-06T12:37:08;15.90;99.90
4615;DHT22;2320;51.362;6.946;2023-08-06T12:39:34;15.90;99.90
4615;DHT22;2320;51.362;6.946;2023-08-06T12:42:00;16.10;99.90
4615;DHT22;2320;51.362;6.946;2023-08-06T12:44:26;16.20;99.90
4615;DHT22;2320;51.362;6.946;2023-08-06T12:46:52;16.20;99.90
4615;DHT22;2320;51.362;6.946;2023-08-06T12:49:18;16.30;99.90
4615;DHT22;2320;51.362;6.946;2023-08-06T12:51:43;16.30;99.90
4615;DHT22;2320;51.362;6.946;2023-08-06T12:54:11;16.40;99.90
4615;DHT22;2320;51.362;6.946;2023-08-06T12:56:36;16.40;99.90
4615;DHT22;2320;51.362;6.946;2023-08-06T12:59:05;16.30;99.90
4615;DHT22;2320;51.362;6.946;2023-08-06T13:01:30;16.30;99.90
4615;DHT22;2320;51.362;6.946;2023-08-06T13:03:56;16.40;99.90
4615;DHT22;2320;51.362;6.946;2023-08-06T13:06:21;16.40;99.90
4615;DHT22;2320;51.362;6.946;2023-08-06T13:08:47;16.30;99.90
4615;DHT22;2320;51.362;6.946;2023-08-06T13:11:12;16.40;99.90
4615;DHT22;2320;51.362;6.946;2023-08-06T13:13:38;16.40;99.90
4615;DHT22;2320;51.362;6.946;2023-08-06T13:16:03;16.40;99.90
4615;DHT22;2320;51.362;6.946;2023-08-06T13:18:29;16.50;99.90
4615;DHT22;2320;51.362;6.946;2023-08-06T13:20:54;16.50;99.90
4615;DHT22;2320;51.362;6.946;2023-08-06T13:23:20;16.50;99.90
4615;DHT22;2320;51.362;6.946;2023-08-06T13:25:45;16.40;99.90
4615;DHT22;2320;51.362;6.946;2023-08-06T13:28:11;16.40;99.90
4615;DHT22;2320;51.362;6.946;2023-08-06T13:30:36;16.40;99.90
4615;DHT22;2320;51.362;6.946;2023-08-06T13:33:10;16.40;99.90
4615;DHT22;2320;51.362;6.946;2023-08-06T13:35:35;16.40;99.90
4615;DHT22;2320;51.362;6.946;2023-08-06T13:38:01;16.40;99.90
4615;DHT22;2320;51.362;6.946;2023-08-06T13:40:29;16.30;99.90
4615;DHT22;2320;51.362;6.946;2023-08-06T13:42:55;16.20;99.90
4615;DHT22;2320;51.362;6.946;2023-08-06T13:45:21;16.10;99.90
4615;DHT22;2320;51.362;6.946;2023-08-06T13:47:46;16.10;99.90
4615;DHT22;2320;51.362;6.946;2023-08-06T13:50:12;16.20;99.90
4615;DHT22;2320;51.362;6.946;2023-08-06T13:52:38;16.30;99.90
4615;DHT22;2320;51.362;6.946;2023-08-06T13:55:04;16.40;99.90
4615;DHT22;2320;51.362;6.946;2023-08-06T13:57:29;16.30;99.90
4615;DHT22;2320;51.362;6.946;2023-08-06T13:59:55;16.30;99.90
4615;DHT22;2320;51.362;6.946;2023-08-06T14:02:21;16.30;99.90
4615;DHT22;2320;51.362;6.946;2023-08-06T14:04:47;16.30;99.90
4615;DHT22;2320;51.362;6.946;2023-08-06T14:07:12;16.40;99.90
4615;DHT22;2320;51.362;6.946;2023-08-06T14:09:38;16.40;99.90
4615;DHT22;2320;51.362;6.946;2023-08-06T14:12:05;16.40;99.90
4615;DHT22;2320;51.362;6.946;2023-08-06T14:14:31;16.40;99.90
4615;DHT22;2320;51.362;6.946;2023-08-06T14:16:56;16.50;99.90
4615;DHT22;2320;51.362;6.946;2023-08-06T14:19:22;16.60;99.90
4615;DHT22;2320;51.362;6.946;2023-08-06T14:21:47;16.60;99.90
4615;DHT22;2320;51.362;6.946;2023-08-06T14:24:13;16.80;99.90
4615;DHT22;2320;51.362;6.946;2023-08-06T14:26:38;17.00;99.90
4615;DHT22;2320;51.362;6.946;2023-08-06T14:29:04;17.30;99.90
4615;DHT22;2320;51.362;6.946;2023-08-06T14:31:29;17.50;99.90
4615;DHT22;2320;51.362;6.946;2023-08-06T14:33:55;17.60;99.90
4615;DHT22;2320;51.362;6.946;2023-08-06T14:36:21;17.70;99.90
4615;DHT22;2320;51.362;6.946;2023-08-06T14:38:46;17.80;99.90
4615;DHT22;2320;51.362;6.946;2023-08-06T14:41:12;18.00;99.90
4615;DHT22;2320;51.362;6.946;2023-08-06T14:43:37;18.30;99.90
4615;DHT22;2320;51.362;6.946;2023-08-06T14:46:03;18.40;99.90
4615;DHT22;2320;51.362;6.946;2023-08-06T14:48:29;18.20;99.90
4615;DHT22;2320;51.362;6.946;2023-08-06T14:50:54;18.00;99.90
4615;DHT22;2320;51.362;6.946;2023-08-06T14:53:20;18.10;99.90
4615;DHT22;2320;51.362;6.946;2023-08-06T14:55:45;18.10;99.90
4615;DHT22;2320;51.362;6.946;2023-08-06T14:58:11;18.20;99.90
4615;DHT22;2320;51.362;6.946;2023-08-06T15:00:36;18.20;99.90
4615;DHT22;2320;51.362;6.946;2023-08-06T15:03:02;18.30;99.90
4615;DHT22;2320;51.362;6.946;2023-08-06T15:05:27;18.40;99.90
4615;DHT22;2320;51.362;6.946;2023-08-06T15:07:52;18.40;99.90
4615;DHT22;2320;51.362;6.946;2023-08-06T15:10:18;18.70;99.90
4615;DHT22;2320;51.362;6.946;2023-08-06T15:12:43;18.90;99.90
4615;DHT22;2320;51.362;6.946;2023-08-06T15:15:09;19.10;99.90
4615;DHT22;2320;51.362;6.946;2023-08-06T15:17:35;19.00;99.90
4615;DHT22;2320;51.362;6.946;2023-08-06T15:20:01;19.00;99.90
4615;DHT22;2320;51.362;6.946;2023-08-06T15:22:26;19.00;99.90
4615;DHT22;2320;51.362;6.946;2023-08-06T15:24:52;18.90;99.90
4615;DHT22;2320;51.362;6.946;2023-08-06T15:27:18;18.80;99.90
4615;DHT22;2320;51.362;6.946;2023-08-06T15:29:43;18.80;99.90
4615;DHT22;2320;51.362;6.946;2023-08-06T15:32:09;18.70;99.90
4615;DHT22;2320;51.362;6.946;2023-08-06T15:34:35;18.60;99.90
4615;DHT22;2320;51.362;6.946;2023-08-06T15:37:00;18.60;99.90
4615;DHT22;2320;51.362;6.946;2023-08-06T15:39:26;18.60;99.90
4615;DHT22;2320;51.362;6.946;2023-08-06T15:41:51;18.50;99.90
4615;DHT22;2320;51.362;6.946;2023-08-06T15:44:17;18.40;99.90
4615;DHT22;2320;51.362;6.946;2023-08-06T15:46:42;18.50;99.90
4615;DHT22;2320;51.362;6.946;2023-08-06T15:49:08;18.60;99.90
4615;DHT22;2320;51.362;6.946;2023-08-06T15:51:33;18.80;99.90
4615;DHT22;2320;51.362;6.946;2023-08-06T15:53:59;18.90;99.90
4615;DHT22;2320;51.362;6.946;2023-08-06T15:56:25;18.80;99.90
4615;DHT22;2320;51.362;6.946;2023-08-06T15:58:50;19.00;99.90
4615;DHT22;2320;51.362;6.946;2023-08-06T16:01:16;19.00;99.90
4615;DHT22;2320;51.362;6.946;2023-08-06T16:03:41;18.90;99.90